Larnaca, Ciper

08:29 PM EEST on junij 25, 2018 (GMT +0300)
All You Can Surf | | Change Station

Viš 5 ft 34.95 °N, 33.65 °E | Updated 10 seconds ago

Partly Cloudy
Delno oblacno
84.7 °F
Feels Like 82 °F
N
6.7
Veter Spremenljivo Veter od SSZ
Gusts 7.4 mph

Danes
High -- | Low -- °F
--% Chance of Precip.
Yesterday
High -- | Low -- °F
Precip. -- v
Zračni tlak 29.77 v
Vidljivost 6.2 milje
Oblaki Few 4000 ft
Toplotni indeks 82 °F
Rosišče 39 °F
Vlažnost 20%
Padavine 0.00 v
Snow Depth Not available.
5:33 AM 8:03 PM
Naraščajoča luna, 94% visible
METAR LCLK 251700Z 22008KT 9999 FEW040 27/24 Q1008 NOSIG
Zračni tlak 29.77 v
Vidljivost 6.2 milje
Oblaki Few 4000 ft
Toplotni indeks 82 °F
Rosišče 39 °F
Vlažnost 20%
Padavine 0.00 v
Snow Depth Not available.
5:33 AM 8:03 PM
Naraščajoča luna, 94% visible
METAR LCLK 251700Z 22008KT 9999 FEW040 27/24 Q1008 NOSIG

Get Severe Weather Alerts

Thanks for signing up!

Be on the lookout for a verification email in your inbox.

You'll start receiving the daily forecast at 6 AM.

×

10-Day Weather Forecast

×

Almanac

Astronomija

Jun. 25, 2018 Rise Set
Actual Time
Civil Twilight
Nautical Twilight
Astronomical Twilight
Moon
Length Of Visible Light
Dolžina dneva
Tomorrow will be .
, % of the Moon is Illuminated

Današnji ekstremi

Country Highs Country Lows

Community

WunderPhotos

Category 6

Welcome to Category 6. This is the collective home for Weather Underground's featured writeups by Dr. Jeff Masters (right), Bob Henson (left), Chris Burt, and other regular contributors.

Nearby

Air Quality

  Air Quality AQ Index Pollutant
Not available.

Snow Depth

Station Depth Višina

Earthquake Activity

City Distance Mag. Time & Date
Minimum magnitude displayed is 2.5.

Coastal Water Temperatures

Mesto Temperatura

Stations

Nearby Weather Stations

Station Location Temp Občutek zaradi vetra Rosišče Vlažnost Veter Precip. Viš Obnovljeno Type